Terminal Aerodrome Forecast
Issued by NWS

Home | Current Version | Previous Version | Text Only | Print | Product List | Glossary On
Versions: 1 2 3 4 5 6 7 8 9 10 11 12 13 14 15 16
000
FTUS43 KGRB 290500
TAFCWA
TAF
KCWA 290520Z 2906/3006 19009KT P6SM BKN250
     FM290800 18011G17KT P6SM BKN120 WS015/21040KT
     FM291300 19015G25KT 5SM -SN SCT040 BKN080 WS020/21045KT
      TEMPO 2913/2917 1 1/2SM -SNPL SCT012 BKN025
     FM291800 22016G30KT P6SM -RASN OVC025
     FM292100 29021G33KT P6SM BKN040
     FM300200 29012G19KT P6SM SCT040
      AMD LTD TO CLD VIS AND WIND TIL 291200=

USA.gov is the U.S. government's official web portal to all federal, state and local government web resources and services.